Time;durP1;ratioP1;P1;durP2;ratioP2;P2;SDS_P1;SDS_P2;PMS_P1;PMS_P2;Temp;Humidity;BMP_temperature;BMP_pressure;BME280_temperature;BME280_humidity;BME280_pressure;Samples;Min_cycle;Max_cycle;Signal;HPM_P1;HPM_P2
2023/08/03 00:00:18;;;;;;;6.07;2.17;;;;;;;15.12;100.00;94765.88;1021533;28;20031;-76
2023/08/03 00:00:48;;;;;;;3.90;1.73;;;;;;;15.22;100.00;94772.69;1014941;29;20054;-75
2023/08/03 00:01:19;;;;;;;4.35;2.10;;;;;;;15.23;100.00;94771.63;1019059;29;20031;-77
2023/08/03 00:01:51;;;;;;;7.88;2.30;;;;;;;15.18;100.00;94771.75;1018977;29;20094;-76
2023/08/03 00:02:21;;;;;;;6.03;2.00;;;;;;;15.19;100.00;94776.75;1018608;29;20027;-75
2023/08/03 00:02:52;;;;;;;5.72;1.90;;;;;;;15.18;100.00;94772.53;1015093;29;20567;-76
2023/08/03 00:03:22;;;;;;;6.85;1.80;;;;;;;15.15;100.00;94770.53;1014944;29;20200;-76
2023/08/03 00:03:53;;;;;;;8.77;2.15;;;;;;;15.20;100.00;94774.88;1017435;28;20527;-74
2023/08/03 00:04:23;;;;;;;4.80;1.70;;;;;;;15.20;100.00;94774.88;1022871;28;20039;-74
2023/08/03 00:04:54;;;;;;;5.03;1.67;;;;;;;15.18;100.00;94775.19;1026947;28;20038;-75
2023/08/03 00:05:24;;;;;;;7.25;1.95;;;;;;;15.18;100.00;94769.13;1021574;28;20089;-73
2023/08/03 00:05:55;;;;;;;6.85;1.92;;;;;;;15.18;100.00;94764.59;1018909;29;20130;-76
2023/08/03 00:06:27;;;;;;;5.18;1.55;;;;;;;15.17;100.00;94762.28;1022757;29;20110;-75
2023/08/03 00:06:57;;;;;;;5.60;1.60;;;;;;;15.17;100.00;94767.59;1019621;28;20384;-74
2023/08/03 00:07:28;;;;;;;5.57;2.00;;;;;;;15.07;100.00;94747.56;1023035;28;20023;-75
2023/08/03 00:07:58;;;;;;;4.13;1.52;;;;;;;15.04;100.00;94748.19;1018957;29;20634;-76
2023/08/03 00:08:29;;;;;;;2.95;1.63;;;;;;;15.09;100.00;94751.44;1015222;29;20058;-76
2023/08/03 00:08:59;;;;;;;5.20;1.80;;;;;;;15.09;100.00;94753.31;1018862;29;20031;-76
2023/08/03 00:09:29;;;;;;;5.28;1.60;;;;;;;15.06;100.00;94746.00;1017580;29;20032;-75
2023/08/03 00:10:00;;;;;;;5.70;1.95;;;;;;;14.97;100.00;94737.31;1018999;29;20031;-74
2023/08/03 00:10:32;;;;;;;6.20;1.95;;;;;;;14.94;100.00;94737.94;1017074;29;20035;-74
2023/08/03 00:11:03;;;;;;;9.25;2.17;;;;;;;14.91;100.00;94739.34;1017344;29;20074;-75
2023/08/03 00:11:33;;;;;;;6.10;1.85;;;;;;;14.96;100.00;94752.41;1015002;29;20056;-76
2023/08/03 00:12:04;;;;;;;5.40;1.50;;;;;;;14.95;100.00;94752.69;1019337;29;20737;-75
2023/08/03 00:12:34;;;;;;;2.78;1.75;;;;;;;14.92;100.00;94750.69;1023259;28;20110;-76
2023/08/03 00:13:05;;;;;;;7.18;1.88;;;;;;;14.91;100.00;94751.78;1027120;28;20038;-77
2023/08/03 00:13:35;;;;;;;8.02;2.10;;;;;;;14.89;100.00;94748.66;1026769;28;20485;-75
2023/08/03 00:14:06;;;;;;;10.18;2.38;;;;;;;14.88;100.00;94749.75;1026914;28;20460;-74
2023/08/03 00:14:36;;;;;;;6.90;1.90;;;;;;;14.83;100.00;94748.84;1022604;28;20032;-77
2023/08/03 00:15:07;;;;;;;5.15;1.83;;;;;;;14.79;100.00;94745.28;1023036;28;20404;-74
2023/08/03 00:15:37;;;;;;;5.75;1.85;;;;;;;14.75;100.00;94736.41;1022873;29;20053;-73
2023/08/03 00:16:08;;;;;;;4.07;1.90;;;;;;;14.79;100.00;94753.22;1021650;29;20484;-76
2023/08/03 00:16:38;;;;;;;5.30;2.00;;;;;;;14.79;100.00;94747.94;1026699;28;20031;-75
2023/08/03 00:17:09;;;;;;;4.82;1.98;;;;;;;14.79;100.00;94747.16;1019147;29;20493;-74
2023/08/03 00:17:39;;;;;;;7.05;1.90;;;;;;;14.77;100.00;94749.31;1018959;29;20051;-76
2023/08/03 00:18:10;;;;;;;6.70;2.13;;;;;;;14.75;100.00;94746.97;1019091;29;20023;-74
2023/08/03 00:18:40;;;;;;;4.70;2.17;;;;;;;14.73;100.00;94743.88;1014908;29;20124;-76
2023/08/03 00:19:11;;;;;;;5.20;2.53;;;;;;;14.71;100.00;94746.06;1023088;28;20772;-74
2023/08/03 00:19:41;;;;;;;4.47;1.95;;;;;;;14.70;100.00;94754.31;1021296;28;20030;-75
2023/08/03 00:20:12;;;;;;;8.18;1.98;;;;;;;14.61;100.00;94754.31;1015242;29;20025;-76
2023/08/03 00:20:42;;;;;;;6.47;2.22;;;;;;;14.56;100.00;94749.19;1018084;29;20502;-76
2023/08/03 00:21:13;;;;;;;6.25;2.30;;;;;;;14.68;100.00;94767.81;1018957;29;20104;-76
2023/08/03 00:21:43;;;;;;;3.25;2.15;;;;;;;14.66;100.00;94767.34;1018843;28;20023;-76
2023/08/03 00:22:14;;;;;;;7.75;2.22;;;;;;;14.66;100.00;94763.94;1022807;29;20143;-76
2023/08/03 00:22:46;;;;;;;4.72;2.70;;;;;;;14.60;100.00;94771.25;1026844;28;20420;-74
2023/08/03 00:23:16;;;;;;;6.15;1.90;;;;;;;14.58;100.00;94768.88;1023184;28;20155;-76
2023/08/03 00:23:47;;;;;;;4.80;1.83;;;;;;;14.57;100.00;94769.22;1023289;28;20030;-76
2023/08/03 00:24:17;;;;;;;8.50;2.28;;;;;;;14.57;100.00;94779.78;1022994;29;20031;-75
2023/08/03 00:24:51;;;;;;;4.95;1.90;;;;;;;14.58;100.00;94768.13;1015245;29;20075;-75
2023/08/03 00:25:22;;;;;;;7.05;1.90;;;;;;;14.57;100.00;94772.63;1011180;29;20047;-74
2023/08/03 00:25:53;;;;;;;7.63;2.67;;;;;;;14.24;100.00;94727.41;1011753;29;20678;-77
2023/08/03 00:26:23;;;;;;;8.43;2.33;;;;;;;14.51;100.00;94767.81;1016614;29;20027;-78
2023/08/03 00:26:54;;;;;;;9.77;2.10;;;;;;;14.53;100.00;94776.97;1014819;29;20036;-75
2023/08/03 00:27:25;;;;;;;5.15;2.13;;;;;;;14.52;100.00;94769.34;1018975;29;20028;-76
2023/08/03 00:27:55;;;;;;;6.45;3.13;;;;;;;14.48;100.00;94758.63;1018855;29;20700;-77
2023/08/03 00:28:26;;;;;;;8.35;2.30;;;;;;;14.52;100.00;94764.06;1015103;29;20020;-74
2023/08/03 00:28:56;;;;;;;4.85;1.90;;;;;;;14.52;100.00;94767.53;1014805;29;20506;-75
2023/08/03 00:29:27;;;;;;;3.75;1.70;;;;;;;14.54;100.00;94773.25;1015226;29;20028;-75
2023/08/03 00:29:57;;;;;;;3.03;1.80;;;;;;;14.55;100.00;94766.09;1014829;29;20059;-76
2023/08/03 00:30:28;;;;;;;4.93;2.20;;;;;;;14.55;100.00;94768.75;1014597;29;20024;-76
2023/08/03 00:30:58;;;;;;;10.55;2.70;;;;;;;14.54;100.00;94764.56;1014775;29;20076;-75
2023/08/03 00:31:29;;;;;;;7.15;2.20;;;;;;;14.48;100.00;94747.28;1016541;28;20028;-75
2023/08/03 00:32:00;;;;;;;5.20;2.38;;;;;;;14.33;100.00;94730.84;1022753;28;20035;-76
2023/08/03 00:32:30;;;;;;;5.78;2.10;;;;;;;14.52;100.00;94758.81;1022897;28;20023;-75
2023/08/03 00:33:01;;;;;;;3.60;2.22;;;;;;;14.52;100.00;94753.53;1026107;28;20023;-75
2023/08/03 00:33:31;;;;;;;5.13;2.00;;;;;;;14.51;100.00;94758.03;1022400;28;20024;-77
2023/08/03 00:34:02;;;;;;;6.63;2.50;;;;;;;14.53;100.00;94749.81;1030982;28;20369;-76
2023/08/03 00:34:32;;;;;;;10.23;2.45;;;;;;;14.46;100.00;94741.56;1034972;28;20149;-74
2023/08/03 00:35:03;;;;;;;3.75;1.90;;;;;;;14.54;100.00;94751.34;1024928;28;20010;-75
2023/08/03 00:35:33;;;;;;;6.20;2.10;;;;;;;14.47;100.00;94743.09;1022739;29;20031;-76
2023/08/03 00:36:04;;;;;;;4.65;2.22;;;;;;;14.49;100.00;94749.63;1019079;29;20124;-76
2023/08/03 00:36:34;;;;;;;6.97;2.55;;;;;;;14.55;100.00;94758.19;1022762;28;20057;-76
2023/08/03 00:37:05;;;;;;;8.25;2.55;;;;;;;14.49;100.00;94748.84;1026841;28;20043;-77
2023/08/03 00:37:38;;;;;;;6.47;2.15;;;;;;;14.54;100.00;94759.28;1026616;28;20408;-75
2023/08/03 00:38:09;;;;;;;3.97;2.25;;;;;;;14.54;100.00;94762.69;1022749;29;20023;-75
2023/08/03 00:38:39;;;;;;;5.88;2.35;;;;;;;14.56;100.00;94771.09;1022684;29;20038;-75
2023/08/03 00:39:10;;;;;;;7.43;2.35;;;;;;;14.56;100.00;94765.03;1023488;28;20068;-77
2023/08/03 00:39:40;;;;;;;6.95;2.60;;;;;;;14.53;100.00;94755.09;1022998;28;20035;-76
2023/08/03 00:40:11;;;;;;;7.93;2.35;;;;;;;14.56;100.00;94771.09;1022034;29;20410;-76
2023/08/03 00:40:41;;;;;;;4.78;2.30;;;;;;;14.52;100.00;94758.81;1014068;29;20019;-76
2023/08/03 00:41:12;;;;;;;5.90;3.05;;;;;;;14.51;100.00;94763.31;1015078;29;20044;-76
2023/08/03 00:41:42;;;;;;;3.72;1.85;;;;;;;14.51;100.00;94762.53;1008760;29;20101;-74
2023/08/03 00:42:12;;;;;;;8.15;2.25;;;;;;;14.56;100.00;94771.09;1015035;29;20020;-74
2023/08/03 00:42:43;;;;;;;4.30;2.17;;;;;;;14.55;100.00;94769.53;1014902;29;20024;-75
2023/08/03 00:43:13;;;;;;;6.75;2.55;;;;;;;14.55;100.00;94768.75;1014867;29;20032;-76
2023/08/03 00:43:44;;;;;;;5.22;2.50;;;;;;;14.55;100.00;94763.47;1022699;28;20023;-77
2023/08/03 00:44:14;;;;;;;5.57;2.65;;;;;;;14.54;100.00;94767.19;1022949;29;20130;-75
2023/08/03 00:44:45;;;;;;;4.95;2.20;;;;;;;14.54;100.00;94772.47;1022883;29;20024;-77
2023/08/03 00:45:15;;;;;;;5.32;2.10;;;;;;;14.50;100.00;94768.88;1022548;29;20070;-75
2023/08/03 00:45:46;;;;;;;8.20;2.35;;;;;;;14.52;100.00;94764.06;1018803;29;20044;-76
2023/08/03 00:46:16;;;;;;;6.13;2.45;;;;;;;14.52;100.00;94774.63;1018890;29;20169;-76
2023/08/03 00:46:46;;;;;;;5.75;1.90;;;;;;;14.48;100.00;94768.41;1022601;29;20019;-75
2023/08/03 00:47:17;;;;;;;6.95;2.03;;;;;;;14.51;100.00;94770.44;1026803;28;20483;-77
2023/08/03 00:47:47;;;;;;;4.20;2.22;;;;;;;14.49;100.00;94776.03;1022667;29;20054;-76
2023/08/03 00:48:19;;;;;;;6.38;2.15;;;;;;;14.45;100.00;94775.06;1022639;29;20026;-75
2023/08/03 00:48:49;;;;;;;4.88;2.08;;;;;;;14.43;100.00;94773.84;1011010;29;20048;-76
2023/08/03 00:49:20;;;;;;;5.55;2.30;;;;;;;14.49;100.00;94780.53;1014915;29;20095;-75
2023/08/03 00:49:50;;;;;;;3.28;1.70;;;;;;;14.44;100.00;94775.41;1018753;29;20691;-76
2023/08/03 00:50:21;;;;;;;3.97;2.33;;;;;;;14.48;100.00;94785.00;1030037;28;20018;-76
2023/08/03 00:50:52;;;;;;;11.40;2.38;;;;;;;14.47;100.00;94780.81;1026702;28;20030;-76
2023/08/03 00:51:22;;;;;;;3.80;1.83;;;;;;;14.47;100.00;94782.69;1026605;28;20519;-74
2023/08/03 00:51:55;;;;;;;6.75;2.17;;;;;;;14.38;100.00;94770.28;1022297;29;20039;-77
2023/08/03 00:52:25;;;;;;;4.75;2.45;;;;;;;14.48;100.00;94778.97;1014921;29;20490;-76
2023/08/03 00:52:56;;;;;;;10.75;2.22;;;;;;;14.48;100.00;94786.88;1015077;29;20048;-74
2023/08/03 00:53:26;;;;;;;8.25;2.60;;;;;;;14.46;100.00;94781.16;1019953;28;20023;-76
2023/08/03 00:53:57;;;;;;;5.22;2.30;;;;;;;14.44;100.00;94770.13;1026475;28;20031;-74
2023/08/03 00:54:27;;;;;;;4.20;2.42;;;;;;;14.44;100.00;94778.03;1018770;29;20557;-76
2023/08/03 00:54:58;;;;;;;7.22;2.47;;;;;;;14.46;100.00;94784.56;1018813;29;20035;-75
2023/08/03 00:55:28;;;;;;;5.20;2.15;;;;;;;14.45;100.00;94784.84;1017978;29;20394;-76
2023/08/03 00:55:59;;;;;;;7.75;3.03;;;;;;;14.46;100.00;94783.78;1018580;29;20063;-76
2023/08/03 00:56:29;;;;;;;8.48;3.33;;;;;;;14.44;100.00;94776.16;1018715;29;20185;-74
2023/08/03 00:56:59;;;;;;;8.32;2.78;;;;;;;14.37;100.00;94767.94;1014636;29;20035;-76
2023/08/03 00:57:30;;;;;;;5.57;2.47;;;;;;;14.43;100.00;94784.41;1014984;29;20555;-76
2023/08/03 00:58:00;;;;;;;5.75;2.15;;;;;;;14.42;100.00;94785.47;1014758;29;20020;-76
2023/08/03 00:58:31;;;;;;;9.02;2.30;;;;;;;14.42;100.00;94775.72;1014805;29;20095;-76
2023/08/03 00:59:05;;;;;;;5.80;2.20;;;;;;;14.37;100.00;94771.34;1014875;29;20087;-74
2023/08/03 00:59:35;;;;;;;4.10;2.28;;;;;;;14.37;100.00;94767.94;1015269;29;20036;-74
2023/08/03 01:00:06;;;;;;;5.05;2.25;;;;;;;14.39;100.00;94773.69;1017134;29;20039;-75
2023/08/03 01:00:36;;;;;;;3.22;2.20;;;;;;;14.43;100.00;94784.41;1014358;29;20059;-75
2023/08/03 01:01:07;;;;;;;4.72;2.03;;;;;;;14.42;100.00;94777.56;1009988;29;20028;-75
2023/08/03 01:01:38;;;;;;;7.00;2.22;;;;;;;14.33;100.00;94773.06;1010284;29;20024;-76
2023/08/03 01:02:08;;;;;;;3.20;2.10;;;;;;;14.39;100.00;94787.66;1013132;29;20031;-77
2023/08/03 01:02:39;;;;;;;5.28;1.90;;;;;;;14.39;100.00;94785.03;1022755;28;20027;-76
2023/08/03 01:03:09;;;;;;;5.97;2.50;;;;;;;14.39;100.00;94792.16;1022905;29;20412;-76
2023/08/03 01:03:40;;;;;;;5.35;2.25;;;;;;;14.37;100.00;94787.19;1022464;29;20038;-75
2023/08/03 01:04:10;;;;;;;5.72;2.30;;;;;;;14.35;100.00;94789.38;1014966;29;20099;-75
2023/08/03 01:04:41;;;;;;;5.93;1.98;;;;;;;14.27;100.00;94784.84;1018696;29;20039;-76
2023/08/03 01:05:11;;;;;;;5.40;3.05;;;;;;;14.29;100.00;94780.06;1015007;29;20024;-74
2023/08/03 01:05:41;;;;;;;4.70;2.13;;;;;;;14.25;100.00;94776.47;1021967;29;20030;-76
2023/08/03 01:06:12;;;;;;;6.03;2.60;;;;;;;14.33;100.00;94793.41;1018922;29;20031;-74
2023/08/03 01:06:42;;;;;;;5.70;2.35;;;;;;;14.32;100.00;94791.84;1018561;29;20028;-75
2023/08/03 01:07:13;;;;;;;8.35;2.28;;;;;;;14.30;100.00;94784.22;1018676;29;20027;-75
2023/08/03 01:07:43;;;;;;;7.38;2.30;;;;;;;14.17;100.00;94758.75;1022755;29;20027;-76
2023/08/03 01:08:14;;;;;;;6.43;2.35;;;;;;;14.29;100.00;94781.91;1026610;28;20485;-77
2023/08/03 01:08:44;;;;;;;9.35;2.28;;;;;;;14.30;100.00;94783.47;1022351;29;20137;-74
2023/08/03 01:09:15;;;;;;;5.88;2.38;;;;;;;14.32;100.00;94792.63;1022666;29;20031;-76
2023/08/03 01:09:45;;;;;;;5.72;2.40;;;;;;;14.29;100.00;94777.41;1018843;29;20449;-78
2023/08/03 01:10:15;;;;;;;5.55;2.38;;;;;;;14.28;100.00;94781.13;1014912;29;20025;-75
2023/08/03 01:10:46;;;;;;;6.25;2.60;;;;;;;14.26;100.00;94778.03;1018013;29;20027;-78
2023/08/03 01:11:16;;;;;;;7.45;2.42;;;;;;;14.23;100.00;94778.66;1010857;29;20016;-76
2023/08/03 01:11:47;;;;;;;4.38;2.35;;;;;;;14.17;100.00;94764.03;1014908;29;20080;-76
2023/08/03 01:12:17;;;;;;;6.57;2.58;;;;;;;14.25;100.00;94773.84;1018606;29;20034;-76
2023/08/03 01:12:48;;;;;;;3.63;1.90;;;;;;;14.26;100.00;94780.66;1018489;29;20028;-75
2023/08/03 01:13:19;;;;;;;5.32;2.47;;;;;;;14.24;100.00;94785.47;1014856;29;20526;-77
2023/08/03 01:13:49;;;;;;;10.35;2.85;;;;;;;14.25;100.00;94780.97;1014957;29;20061;-75
2023/08/03 01:14:19;;;;;;;8.57;2.67;;;;;;;14.19;100.00;94772.44;1018724;29;20023;-76
2023/08/03 01:14:50;;;;;;;9.15;2.53;;;;;;;14.16;100.00;94773.06;1018729;29;20517;-77
2023/08/03 01:15:20;;;;;;;7.22;2.58;;;;;;;14.22;100.00;94776.28;1014776;29;20491;-76
2023/08/03 01:15:51;;;;;;;7.63;2.88;;;;;;;14.21;100.00;94777.38;1018617;29;20038;-76
2023/08/03 01:16:22;;;;;;;6.03;2.33;;;;;;;14.18;100.00;94778.78;1017127;28;20035;-76
2023/08/03 01:16:53;;;;;;;5.95;2.25;;;;;;;14.13;100.00;94773.66;1014742;29;20055;-76
2023/08/03 01:17:25;;;;;;;7.93;2.65;;;;;;;14.12;100.00;94772.13;1008818;29;20399;-75
2023/08/03 01:17:55;;;;;;;5.97;2.08;;;;;;;14.14;100.00;94780.47;1018579;29;20522;-75
2023/08/03 01:18:25;;;;;;;9.30;2.50;;;;;;;14.17;100.00;94777.22;1020949;28;20023;-77
2023/08/03 01:18:57;;;;;;;5.63;2.20;;;;;;;14.17;100.00;94776.47;1022510;28;20110;-76
2023/08/03 01:19:27;;;;;;;5.78;2.28;;;;;;;14.11;100.00;94770.53;1015121;29;20067;-75
2023/08/03 01:19:58;;;;;;;9.30;2.55;;;;;;;14.13;100.00;94773.66;1014669;29;20032;-75
2023/08/03 01:20:28;;;;;;;7.93;2.63;;;;;;;14.12;100.00;94772.91;1018085;29;20031;-75
2023/08/03 01:20:59;;;;;;;9.07;2.55;;;;;;;14.10;100.00;94769.78;1022347;29;20063;-76
2023/08/03 01:21:29;;;;;;;5.78;2.20;;;;;;;14.11;100.00;94770.53;1022376;29;20082;-75
2023/08/03 01:21:59;;;;;;;9.88;2.95;;;;;;;14.13;100.00;94763.88;1018683;29;20031;-75
2023/08/03 01:22:30;;;;;;;7.50;2.92;;;;;;;14.15;100.00;94771.47;1014868;29;20039;-77
2023/08/03 01:23:04;;;;;;;6.05;2.30;;;;;;;14.10;100.00;94766.38;1016522;29;20028;-76
2023/08/03 01:23:35;;;;;;;5.68;2.38;;;;;;;14.14;100.00;94769.94;1018645;29;20062;-76
2023/08/03 01:24:05;;;;;;;6.47;2.30;;;;;;;14.13;100.00;94760.47;1014758;29;20036;-76
2023/08/03 01:24:35;;;;;;;7.43;2.53;;;;;;;14.10;100.00;94759.22;1015613;29;20035;-77
2023/08/03 01:25:06;;;;;;;9.73;2.67;;;;;;;14.14;100.00;94762.78;1019829;28;20032;-75
2023/08/03 01:25:36;;;;;;;7.00;2.08;;;;;;;14.14;100.00;94759.38;1022490;29;20110;-76
2023/08/03 01:26:07;;;;;;;9.68;2.22;;;;;;;14.13;100.00;94753.34;1018784;29;20031;-76
2023/08/03 01:26:37;;;;;;;5.32;2.28;;;;;;;14.17;100.00;94764.03;1026446;28;20743;-76
2023/08/03 01:27:08;;;;;;;7.20;2.35;;;;;;;14.10;100.00;94753.19;1026658;28;20019;-76
2023/08/03 01:27:38;;;;;;;9.00;2.70;;;;;;;14.16;100.00;94762.50;1022400;28;20103;-76
2023/08/03 01:28:09;;;;;;;5.80;2.05;;;;;;;14.11;100.00;94749.44;1022578;29;20034;-75
2023/08/03 01:28:39;;;;;;;8.23;2.35;;;;;;;14.14;100.00;94749.59;1014847;29;20630;-77
2023/08/03 01:29:11;;;;;;;4.13;2.08;;;;;;;14.15;100.00;94751.16;1010880;29;20040;-76
2023/08/03 01:29:42;;;;;;;4.68;2.67;;;;;;;14.20;100.00;94758.16;1011717;29;20068;-77
2023/08/03 01:30:12;;;;;;;5.32;2.08;;;;;;;14.14;100.00;94752.25;1015268;29;20028;-75
2023/08/03 01:30:43;;;;;;;7.55;2.80;;;;;;;14.19;100.00;94756.59;1014329;29;20064;-79
2023/08/03 01:31:14;;;;;;;8.93;2.50;;;;;;;14.18;100.00;94752.41;1015052;29;20446;-76
2023/08/03 01:31:44;;;;;;;9.18;2.40;;;;;;;14.23;100.00;94748.84;1014658;29;20886;-76
2023/08/03 01:32:15;;;;;;;6.97;2.28;;;;;;;14.23;100.00;94740.94;1018729;29;20031;-78
2023/08/03 01:32:45;;;;;;;8.10;2.28;;;;;;;14.24;100.00;94737.97;1022572;29;20031;-77
2023/08/03 01:33:16;;;;;;;6.38;2.22;;;;;;;14.29;100.00;94740.47;1024851;28;20031;-75
2023/08/03 01:33:46;;;;;;;6.78;2.42;;;;;;;14.25;100.00;94729.00;1018550;29;20039;-75
2023/08/03 01:34:17;;;;;;;4.90;2.22;;;;;;;14.27;100.00;94745.28;1010918;29;20103;-76
2023/08/03 01:34:47;;;;;;;7.65;2.10;;;;;;;14.29;100.00;94739.69;1013950;29;20084;-74
2023/08/03 01:35:17;;;;;;;9.68;2.20;;;;;;;14.25;100.00;94733.47;1013855;29;20032;-75
2023/08/03 01:35:49;;;;;;;5.72;2.40;;;;;;;14.28;100.00;94744.16;1014582;29;20035;-75
2023/08/03 01:36:19;;;;;;;6.93;1.83;;;;;;;14.29;100.00;94740.47;1014715;29;20032;-75
2023/08/03 01:36:51;;;;;;;6.40;2.60;;;;;;;14.41;100.00;94757.53;1018860;29;20401;-76
2023/08/03 01:37:22;;;;;;;12.52;2.30;;;;;;;14.28;100.00;94735.47;1018867;29;20406;-77
2023/08/03 01:37:52;;;;;;;5.68;2.28;;;;;;;14.37;100.00;94744.19;1018543;29;20031;-77
2023/08/03 01:38:22;;;;;;;6.80;2.15;;;;;;;14.29;100.00;94743.09;1018495;29;20031;-77
2023/08/03 01:38:54;;;;;;;8.80;2.08;;;;;;;14.29;100.00;94739.69;1011026;29;20507;-76
2023/08/03 01:39:26;;;;;;;5.82;2.20;;;;;;;14.34;100.00;94742.94;1011160;29;20036;-76
2023/08/03 01:39:56;;;;;;;5.45;1.70;;;;;;;14.35;100.00;94743.72;1014332;29;20043;-75
2023/08/03 01:40:26;;;;;;;12.52;2.20;;;;;;;14.33;100.00;94730.84;1014189;29;20043;-75
2023/08/03 01:40:59;;;;;;;8.27;2.22;;;;;;;14.43;100.00;94739.53;1018485;29;20032;-77
2023/08/03 01:41:30;;;;;;;6.70;2.42;;;;;;;14.41;100.00;94736.41;1019116;28;20501;-75
2023/08/03 01:42:00;;;;;;;5.15;2.42;;;;;;;14.34;100.00;94731.59;1022936;28;20035;-78
2023/08/03 01:42:31;;;;;;;8.02;2.60;;;;;;;14.26;100.00;94717.34;1026797;28;20026;-75
2023/08/03 01:43:01;;;;;;;6.88;1.95;;;;;;;14.37;100.00;94733.63;1026533;28;20081;-77
2023/08/03 01:43:32;;;;;;;8.02;1.98;;;;;;;14.37;100.00;94736.28;1021333;28;20023;-76
2023/08/03 01:44:40;;;;;;;9.20;2.25;;;;;;;14.36;100.00;94732.84;1018464;29;20036;-74
2023/08/03 01:45:10;;;;;;;9.27;2.25;;;;;;;14.29;100.00;94718.59;1020474;28;20687;-77
2023/08/03 01:45:41;;;;;;;8.57;2.28;;;;;;;14.37;100.00;94731.75;1026638;28;20027;-77
2023/08/03 01:46:11;;;;;;;4.03;1.80;;;;;;;14.38;100.00;94727.25;1026511;28;20593;-75
2023/08/03 01:46:41;;;;;;;6.57;2.28;;;;;;;14.32;100.00;94723.25;1026480;28;20037;-76
2023/08/03 01:47:12;;;;;;;9.95;2.20;;;;;;;14.38;100.00;94732.53;1022716;28;20038;-76
2023/08/03 01:47:42;;;;;;;5.38;2.00;;;;;;;14.37;100.00;94733.63;1026302;28;20042;-75
2023/08/03 01:48:13;;;;;;;7.72;1.90;;;;;;;14.39;100.00;94734.88;1026415;28;20027;-75
2023/08/03 01:48:43;;;;;;;5.78;2.25;;;;;;;14.38;100.00;94730.69;1022463;28;20027;-75
2023/08/03 01:49:14;;;;;;;8.32;2.10;;;;;;;14.40;100.00;94735.66;1022623;29;20039;-76
2023/08/03 01:49:44;;;;;;;10.65;2.63;;;;;;;14.31;100.00;94721.66;1022774;28;20468;-76
2023/08/03 01:50:15;;;;;;;8.25;2.22;;;;;;;14.30;100.00;94715.63;1026425;28;20031;-76
2023/08/03 01:50:45;;;;;;;7.57;2.28;;;;;;;14.37;100.00;94731.75;1017971;29;20135;-76
2023/08/03 01:51:16;;;;;;;7.93;2.42;;;;;;;14.36;100.00;94735.50;1022625;29;20039;-75
2023/08/03 01:51:46;;;;;;;7.45;2.10;;;;;;;14.37;100.00;94737.03;1021764;28;20023;-76
2023/08/03 01:52:17;;;;;;;9.02;2.33;;;;;;;14.35;100.00;94739.22;1014810;28;20028;-77
2023/08/03 01:52:48;;;;;;;9.75;2.72;;;;;;;14.37;100.00;94742.31;1026446;28;20672;-75
2023/08/03 01:53:18;;;;;;;8.80;2.20;;;;;;;14.36;100.00;94745.28;1026600;28;20031;-77
2023/08/03 01:53:49;;;;;;;9.63;2.13;;;;;;;14.35;100.00;94743.72;1025841;28;20100;-75
2023/08/03 01:54:19;;;;;;;4.78;2.20;;;;;;;14.28;100.00;94735.47;1026601;28;20030;-75
2023/08/03 01:54:50;;;;;;;7.80;2.72;;;;;;;14.24;100.00;94731.91;1014771;29;20044;-77
2023/08/03 01:55:20;;;;;;;10.45;2.45;;;;;;;14.33;100.00;94751.94;1020520;28;20106;-75
2023/08/03 01:55:51;;;;;;;7.68;2.22;;;;;;;14.35;100.00;94747.16;1026417;28;20382;-75
2023/08/03 01:56:21;;;;;;;9.32;2.50;;;;;;;14.24;100.00;94734.56;1030528;28;20056;-77
2023/08/03 01:56:54;;;;;;;4.88;2.28;;;;;;;14.31;100.00;94751.47;1026094;28;20496;-75
2023/08/03 01:57:25;;;;;;;7.80;2.40;;;;;;;14.33;100.00;94745.91;1014668;29;20047;-75
2023/08/03 01:57:56;;;;;;;7.80;2.83;;;;;;;14.28;100.00;94736.25;1014777;29;20043;-74
2023/08/03 01:58:26;;;;;;;6.30;2.20;;;;;;;14.35;100.00;94749.78;1014619;29;20059;-77
2023/08/03 01:58:57;;;;;;;10.02;2.22;;;;;;;14.22;100.00;94737.53;1010349;29;20035;-75
2023/08/03 01:59:27;;;;;;;8.02;2.15;;;;;;;14.27;100.00;94747.91;1010977;29;20497;-77
2023/08/03 01:59:58;;;;;;;10.52;2.50;;;;;;;14.25;100.00;94750.09;1005073;29;20048;-76
2023/08/03 02:00:28;;;;;;;11.25;2.53;;;;;;;14.24;100.00;94745.13;1012451;29;20032;-75
2023/08/03 02:00:59;;;;;;;7.15;2.50;;;;;;;14.24;100.00;94748.53;1018350;29;20065;-75
2023/08/03 02:01:29;;;;;;;8.70;2.20;;;;;;;14.23;100.00;94744.34;1017145;28;20043;-75
2023/08/03 02:01:59;;;;;;;6.75;2.20;;;;;;;14.17;100.00;94736.88;1026272;28;20097;-76
2023/08/03 02:02:30;;;;;;;5.38;2.30;;;;;;;14.23;100.00;94736.44;1026618;28;20026;-76
2023/08/03 02:03:00;;;;;;;6.60;2.28;;;;;;;14.18;100.00;94733.16;1026242;28;20647;-75
2023/08/03 02:03:31;;;;;;;7.10;2.00;;;;;;;14.23;100.00;94746.22;1026535;28;20023;-75
2023/08/03 02:04:01;;;;;;;7.72;2.33;;;;;;;14.21;100.00;94748.38;1018251;29;20019;-75
2023/08/03 02:04:32;;;;;;;7.72;2.47;;;;;;;14.19;100.00;94747.91;1022776;28;20046;-75
2023/08/03 02:05:03;;;;;;;7.15;2.30;;;;;;;14.24;100.00;94760.94;1022268;28;20031;-77
2023/08/03 02:05:33;;;;;;;7.05;2.30;;;;;;;14.23;100.00;94764.69;1021964;28;20366;-76
2023/08/03 02:06:04;;;;;;;7.22;2.92;;;;;;;14.24;100.00;94761.72;1026491;28;20077;-76
2023/08/03 02:06:36;;;;;;;6.85;2.40;;;;;;;14.23;100.00;94764.69;1022578;28;20039;-75
2023/08/03 02:07:15;;;;;;;10.38;2.20;;;;;;;14.19;100.00;94761.88;1026411;28;20039;-74
2023/08/03 02:07:53;;;;;;;5.30;2.25;;;;;;;14.10;100.00;94756.59;1022709;29;20405;-77
2023/08/03 02:08:23;;;;;;;6.25;1.98;;;;;;;14.15;100.00;94760.94;1020891;29;20028;-75
2023/08/03 02:08:54;;;;;;;7.28;2.22;;;;;;;14.18;100.00;94755.03;1020183;29;20078;-76
2023/08/03 02:09:24;;;;;;;6.05;1.83;;;;;;;14.20;100.00;94757.38;1018442;29;20039;-78
2023/08/03 02:09:55;;;;;;;6.55;1.88;;;;;;;14.13;100.00;94747.28;1018604;29;20478;-76
2023/08/03 02:10:25;;;;;;;8.25;3.33;;;;;;;14.20;100.00;94747.59;1017965;29;20031;-76
2023/08/03 02:10:56;;;;;;;7.60;2.22;;;;;;;14.12;100.00;94737.81;1014397;29;20414;-76
2023/08/03 02:11:26;;;;;;;12.25;2.50;;;;;;;14.16;100.00;94741.38;1014391;29;20043;-75
2023/08/03 02:11:57;;;;;;;8.43;2.15;;;;;;;14.17;100.00;94742.94;1018525;29;20501;-74
2023/08/03 02:12:27;;;;;;;7.72;2.20;;;;;;;14.20;100.00;94746.81;1014627;29;20032;-75
2023/08/03 02:12:58;;;;;;;5.10;2.17;;;;;;;14.18;100.00;94738.44;1013712;29;20395;-75
2023/08/03 02:13:28;;;;;;;8.35;2.20;;;;;;;14.18;100.00;94741.06;1022377;29;20126;-74
2023/08/03 02:13:59;;;;;;;9.07;2.35;;;;;;;14.13;100.00;94737.50;1022332;29;20027;-75
2023/08/03 02:14:29;;;;;;;13.15;3.08;;;;;;;14.11;100.00;94739.66;1016419;29;20038;-75
2023/08/03 02:15:00;;;;;;;6.80;2.10;;;;;;;14.09;100.00;94743.72;1022486;28;20039;-75
2023/08/03 02:15:30;;;;;;;7.55;2.95;;;;;;;14.10;100.00;94738.13;1026426;28;20042;-77
2023/08/03 02:16:01;;;;;;;8.05;2.25;;;;;;;14.09;100.00;94738.44;1026309;28;20447;-76
2023/08/03 02:16:32;;;;;;;10.20;2.53;;;;;;;14.06;100.00;94736.41;1018595;29;20688;-75
2023/08/03 02:17:02;;;;;;;9.57;2.60;;;;;;;14.06;100.00;94736.41;1014441;29;20032;-76
2023/08/03 02:17:33;;;;;;;6.88;2.03;;;;;;;13.90;100.00;94717.63;1014625;29;20111;-75
2023/08/03 02:18:03;;;;;;;7.90;2.30;;;;;;;14.06;100.00;94747.75;1014595;29;20067;-75
2023/08/03 02:18:34;;;;;;;10.38;2.50;;;;;;;14.10;100.00;94748.66;1018557;29;20028;-76
2023/08/03 02:19:04;;;;;;;8.40;2.20;;;;;;;14.10;100.00;94753.19;1022625;28;20030;-75
2023/08/03 02:19:35;;;;;;;10.00;2.33;;;;;;;14.12;100.00;94749.16;1022080;28;20031;-75
2023/08/03 02:20:06;;;;;;;8.70;2.85;;;;;;;14.15;100.00;94750.38;1026448;28;20027;-76
2023/08/03 02:20:37;;;;;;;7.75;2.20;;;;;;;14.12;100.00;94751.78;1021777;29;20054;-76
2023/08/03 02:21:07;;;;;;;10.73;2.53;;;;;;;14.12;100.00;94753.66;1022520;28;20531;-74
2023/08/03 02:21:38;;;;;;;8.40;2.45;;;;;;;14.09;100.00;94741.06;1022487;29;20023;-77
2023/08/03 02:22:08;;;;;;;9.07;2.88;;;;;;;14.04;100.00;94739.34;1015185;29;20020;-75
2023/08/03 02:22:39;;;;;;;6.10;2.30;;;;;;;14.10;100.00;94747.91;1014825;29;20024;-75
2023/08/03 02:23:09;;;;;;;8.60;2.22;;;;;;;14.09;100.00;94741.06;1017212;29;20038;-76